createdAt,value
2023-02-20T00:03:16.687Z,-3.47
2023-02-20T00:06:38.683Z,-3.48
2023-02-20T00:10:01.307Z,-3.46
2023-02-20T00:13:23.022Z,-3.57
2023-02-20T00:16:49.265Z,-3.49
2023-02-20T00:20:12.205Z,-3.49
2023-02-20T00:23:34.753Z,-3.52
2023-02-20T00:26:56.421Z,-3.49
2023-02-20T00:30:20.274Z,-3.54
2023-02-20T00:33:43.392Z,-3.54
2023-02-20T00:37:05.538Z,-3.56
2023-02-20T00:40:28.226Z,-3.54
2023-02-20T00:43:50.088Z,-3.58
2023-02-20T00:47:12.140Z,-3.57
2023-02-20T00:50:35.410Z,-3.63
2023-02-20T00:53:57.559Z,-3.63
2023-02-20T00:57:19.602Z,-3.63
2023-02-20T01:00:41.532Z,-3.67
2023-02-20T01:04:03.502Z,-3.66
2023-02-20T01:07:27.467Z,-3.68
2023-02-20T01:10:49.334Z,-3.67
2023-02-20T01:14:11.251Z,-3.69
2023-02-20T01:17:33.033Z,-3.72
2023-02-20T01:20:55.240Z,-3.71
2023-02-20T01:24:19.447Z,-3.73
2023-02-20T01:27:41.941Z,-3.73
2023-02-20T01:31:03.910Z,-3.73
2023-02-20T01:34:26.269Z,-3.74
2023-02-20T01:37:48.511Z,-3.84
2023-02-20T01:41:13.645Z,-3.76
2023-02-20T01:44:38.001Z,-3.81
2023-02-20T01:48:00.278Z,-3.78
2023-02-20T01:51:22.417Z,-3.78
2023-02-20T01:54:47.085Z,-3.79
2023-02-20T01:58:16.613Z,-3.79
2023-02-20T02:01:40.186Z,-3.79
2023-02-20T02:05:03.234Z,-3.81
2023-02-20T02:08:27.289Z,-3.81
2023-02-20T02:11:50.657Z,-3.83
2023-02-20T02:15:17.880Z,-3.84
2023-02-20T02:18:54.034Z,-3.82
2023-02-20T02:22:44.216Z,-3.85
2023-02-20T02:26:23.083Z,-3.88
2023-02-20T02:30:22.276Z,-3.78
2023-02-20T02:34:02.561Z,-3.79
2023-02-20T02:37:32.015Z,-3.94
2023-02-20T02:41:03.840Z,-3.81
2023-02-20T02:44:33.871Z,-3.82
2023-02-20T02:48:02.774Z,-3.85
2023-02-20T02:51:28.443Z,-3.88
2023-02-20T02:54:51.771Z,-3.82
2023-02-20T02:58:16.042Z,-3.82
2023-02-20T03:01:44.211Z,-3.83
2023-02-20T03:05:09.973Z,-3.85
2023-02-20T03:08:38.371Z,-3.82
2023-02-20T03:12:05.410Z,-3.80
2023-02-20T03:15:33.572Z,-3.87
2023-02-20T03:19:01.126Z,-3.91
2023-02-20T03:22:28.370Z,-3.80
2023-02-20T03:25:55.434Z,-3.81
2023-02-20T03:29:28.148Z,-3.79
2023-02-20T03:33:14.083Z,-3.85
2023-02-20T03:36:58.606Z,-3.80
2023-02-20T03:40:41.489Z,-3.87
2023-02-20T03:44:08.024Z,-3.81
2023-02-20T03:47:35.309Z,-3.76
2023-02-20T03:51:15.739Z,-3.74
2023-02-20T03:54:38.302Z,-3.73
2023-02-20T03:58:05.185Z,-3.73
2023-02-20T04:01:28.813Z,-3.68
2023-02-20T04:04:55.943Z,-3.64
2023-02-20T04:08:20.788Z,-3.64
2023-02-20T04:11:46.783Z,-3.64
2023-02-20T04:15:11.319Z,-3.69
2023-02-20T04:18:34.528Z,-3.69
2023-02-20T04:22:00.805Z,-3.73
2023-02-20T04:25:34.439Z,-3.67
2023-02-20T04:28:56.300Z,-3.69
2023-02-20T04:32:18.246Z,-3.67
2023-02-20T04:35:40.020Z,-3.73
2023-02-20T04:39:03.132Z,-3.65
2023-02-20T04:42:25.101Z,-3.81
2023-02-20T04:45:46.939Z,-3.61
2023-02-20T04:49:08.668Z,-3.61
2023-02-20T04:52:30.446Z,-3.58
2023-02-20T04:55:53.676Z,-3.70
2023-02-20T04:59:15.881Z,-3.58
2023-02-20T05:02:40.013Z,-3.61
2023-02-20T05:06:01.692Z,-3.57
2023-02-20T05:09:24.109Z,-3.63
2023-02-20T05:12:47.412Z,-3.54
2023-02-20T05:16:10.356Z,-3.57
2023-02-20T05:19:32.270Z,-3.54
2023-02-20T05:22:53.275Z,-3.63
2023-02-20T05:26:19.615Z,-3.60
2023-02-20T05:29:46.144Z,-3.49
2023-02-20T05:33:08.443Z,-3.48
2023-02-20T05:36:30.359Z,-3.49
2023-02-20T05:39:52.199Z,-3.35
2023-02-20T05:43:14.576Z,-3.33
2023-02-20T05:46:42.023Z,-3.43
2023-02-20T05:50:04.365Z,-3.29
2023-02-20T05:53:28.934Z,-3.27
2023-02-20T05:56:51.709Z,-3.23
2023-02-20T06:00:14.770Z,-3.20
2023-02-20T06:03:38.285Z,-3.17
2023-02-20T06:07:00.171Z,-3.16
2023-02-20T06:10:23.050Z,-3.16
2023-02-20T06:13:46.086Z,-3.10
2023-02-20T06:17:08.045Z,-2.98
2023-02-20T06:20:31.266Z,-3.01
2023-02-20T06:23:55.036Z,-2.80
2023-02-20T06:27:17.987Z,-2.91
2023-02-20T06:30:39.962Z,-2.68
2023-02-20T06:34:02.051Z,-2.73
2023-02-20T06:37:25.320Z,-2.63
2023-02-20T06:40:47.542Z,-2.45
2023-02-20T06:44:09.688Z,-2.38
2023-02-20T06:47:32.301Z,-2.33
2023-02-20T06:50:56.279Z,-2.28
2023-02-20T06:54:22.031Z,-2.22
2023-02-20T06:57:44.271Z,-2.12
2023-02-20T07:01:06.326Z,-2.06
2023-02-20T07:04:28.200Z,-1.92
2023-02-20T07:07:49.937Z,-1.85
2023-02-20T07:11:14.207Z,-1.70
2023-02-20T07:14:36.013Z,-1.67
2023-02-20T07:17:58.186Z,-1.56
2023-02-20T07:21:20.142Z,-1.50
2023-02-20T07:24:42.791Z,-1.51
2023-02-20T07:28:08.410Z,-1.50
2023-02-20T07:31:30.290Z,-1.49
2023-02-20T07:35:03.270Z,-1.47
2023-02-20T07:38:25.953Z,-1.48
2023-02-20T07:41:47.725Z,-1.45
2023-02-20T07:45:12.123Z,-1.36
2023-02-20T07:48:34.738Z,-1.30
2023-02-20T07:51:56.488Z,-1.23
2023-02-20T07:55:19.222Z,-1.12
2023-02-20T07:58:41.291Z,-1.05
2023-02-20T08:02:04.584Z,-1.04
2023-02-20T08:05:28.383Z,-1.04
2023-02-20T08:08:52.142Z,-1.01
2023-02-20T08:12:15.359Z,-0.93
2023-02-20T08:15:39.842Z,-0.85
2023-02-20T08:19:03.255Z,-0.77
2023-02-20T08:22:33.327Z,-0.69
2023-02-20T08:26:04.821Z,-0.62
2023-02-20T08:29:26.665Z,-0.60
2023-02-20T08:32:48.559Z,-0.57
2023-02-20T08:36:12.321Z,-0.53
2023-02-20T08:39:34.097Z,-0.57
2023-02-20T08:42:56.035Z,-0.44
2023-02-20T08:46:18.043Z,-0.39
2023-02-20T08:49:39.851Z,-0.40
2023-02-20T08:53:03.259Z,-0.38
2023-02-20T08:56:25.251Z,-0.35
2023-02-20T08:59:47.556Z,-0.36
2023-02-20T09:03:09.315Z,-0.31
2023-02-20T09:06:31.141Z,-0.28
2023-02-20T09:09:54.397Z,-0.22
2023-02-20T09:13:16.551Z,-0.18
2023-02-20T09:16:42.056Z,-0.08
2023-02-20T09:20:03.918Z,-0.01
2023-02-20T09:23:27.398Z,0.04
2023-02-20T09:26:51.025Z,0.12
2023-02-20T09:30:17.452Z,0.15
2023-02-20T09:33:39.646Z,0.13
2023-02-20T09:37:01.551Z,0.20
2023-02-20T09:40:25.149Z,0.28
2023-02-20T09:43:56.815Z,0.38
2023-02-20T09:47:37.623Z,0.33
2023-02-20T09:51:03.456Z,0.60
2023-02-20T09:54:31.068Z,0.75
2023-02-20T09:57:55.573Z,0.83
2023-02-20T10:01:23.356Z,0.80
2023-02-20T10:05:00.486Z,0.57
2023-02-20T10:08:25.850Z,0.72
2023-02-20T10:12:01.848Z,0.65
2023-02-20T10:15:28.328Z,0.66
2023-02-20T10:19:00.650Z,0.57
2023-02-20T10:22:27.513Z,0.66
2023-02-20T10:25:53.465Z,0.74
2023-02-20T10:29:18.214Z,0.73
2023-02-20T10:32:45.531Z,0.71
2023-02-20T10:36:15.148Z,0.75
2023-02-20T10:39:40.059Z,0.80
2023-02-20T10:43:07.116Z,0.75
2023-02-20T10:46:49.075Z,0.78
2023-02-20T10:50:16.747Z,0.84
2023-02-20T10:53:48.958Z,0.86
2023-02-20T10:57:16.524Z,0.89
2023-02-20T11:00:42.402Z,0.91
2023-02-20T11:04:08.050Z,0.98
2023-02-20T11:07:30.341Z,1.01
2023-02-20T11:10:59.254Z,1.01
2023-02-20T11:14:39.363Z,1.04
2023-02-20T11:18:02.138Z,1.04
2023-02-20T11:21:35.766Z,0.98
2023-02-20T11:25:16.528Z,1.00
2023-02-20T11:28:40.438Z,0.96
2023-02-20T11:32:24.629Z,0.95
2023-02-20T11:35:48.107Z,0.84
2023-02-20T11:39:21.608Z,1.06
2023-02-20T11:42:43.806Z,1.00
2023-02-20T11:46:12.495Z,0.93
2023-02-20T11:49:34.203Z,0.87
2023-02-20T11:53:02.478Z,0.89
2023-02-20T11:56:24.713Z,0.91
2023-02-20T11:59:47.702Z,0.93
2023-02-20T12:03:15.680Z,0.90
2023-02-20T12:06:44.044Z,0.83
2023-02-20T12:10:26.586Z,0.84
2023-02-20T12:13:50.628Z,0.89
2023-02-20T12:17:24.859Z,0.89
2023-02-20T12:20:54.803Z,0.89
2023-02-20T12:24:34.556Z,0.87
2023-02-20T12:28:04.967Z,0.84
2023-02-20T12:31:42.803Z,0.81
2023-02-20T12:35:26.544Z,0.86
2023-02-20T12:38:52.091Z,0.84
2023-02-20T12:42:23.984Z,0.80
2023-02-20T12:45:58.401Z,0.74
2023-02-20T12:49:42.221Z,0.71
2023-02-20T12:53:25.595Z,0.64
2023-02-20T12:57:08.595Z,0.62
2023-02-20T13:00:35.866Z,0.61
2023-02-20T13:04:04.926Z,0.52
2023-02-20T13:07:32.235Z,0.49
2023-02-20T13:10:58.002Z,0.42
2023-02-20T13:14:35.737Z,0.41
2023-02-20T13:18:11.306Z,0.44
2023-02-20T13:21:34.534Z,0.47
2023-02-20T13:24:56.567Z,0.40
2023-02-20T13:28:43.084Z,0.40
2023-02-20T13:32:26.678Z,0.33
2023-02-20T13:35:53.510Z,0.24
2023-02-20T13:39:53.807Z,0.18
2023-02-20T13:43:31.179Z,0.02
2023-02-20T13:47:02.739Z,0.01
2023-02-20T13:50:35.227Z,-0.11
2023-02-20T13:54:04.216Z,-0.12
2023-02-20T13:57:30.050Z,-0.19
2023-02-20T14:00:55.208Z,-0.30
2023-02-20T14:04:22.353Z,-0.37
2023-02-20T14:07:47.861Z,-0.41
2023-02-20T14:11:11.798Z,-0.41
2023-02-20T14:14:42.678Z,-0.43
2023-02-20T14:18:05.211Z,-0.43
2023-02-20T14:21:27.440Z,-0.46
2023-02-20T14:25:02.903Z,-0.48
2023-02-20T14:28:24.967Z,-0.51
2023-02-20T14:31:51.803Z,-0.58
2023-02-20T14:35:33.114Z,-0.57
2023-02-20T14:39:10.173Z,-0.64
2023-02-20T14:42:35.441Z,-0.68
2023-02-20T14:46:02.876Z,-0.70
2023-02-20T14:49:27.233Z,-0.72
2023-02-20T14:52:49.193Z,-0.73
2023-02-20T14:56:17.386Z,-0.82
2023-02-20T14:59:41.727Z,-0.75
2023-02-20T15:03:24.386Z,-0.84
2023-02-20T15:06:52.492Z,-0.83
2023-02-20T15:10:37.871Z,-0.88
2023-02-20T15:14:01.043Z,-0.89
2023-02-20T15:17:26.584Z,-0.89
2023-02-20T15:20:49.701Z,-0.98
2023-02-20T15:24:37.056Z,-0.99
2023-02-20T15:28:07.915Z,-1.08
2023-02-20T15:31:33.406Z,-1.20
2023-02-20T15:34:58.662Z,-1.08
2023-02-20T15:38:20.591Z,-1.10
2023-02-20T15:41:42.546Z,-1.17
2023-02-20T15:45:04.641Z,-1.22
2023-02-20T15:48:26.818Z,-1.17
2023-02-20T15:51:56.209Z,-1.24
2023-02-20T15:55:23.563Z,-1.25
2023-02-20T15:58:48.307Z,-1.29
2023-02-20T16:02:14.927Z,-1.29
2023-02-20T16:05:37.031Z,-1.32
2023-02-20T16:09:00.633Z,-1.38
2023-02-20T16:12:29.101Z,-1.49
2023-02-20T16:15:51.421Z,-1.59
2023-02-20T16:19:16.201Z,-1.65
2023-02-20T16:22:37.932Z,-1.75
2023-02-20T16:26:01.919Z,-1.89
2023-02-20T16:29:29.249Z,-1.82
2023-02-20T16:32:52.257Z,-1.90
2023-02-20T16:36:24.352Z,-1.95
2023-02-20T16:39:47.081Z,-1.97
2023-02-20T16:43:13.953Z,-2.17
2023-02-20T16:46:38.619Z,-2.07
2023-02-20T16:50:04.872Z,-2.08
2023-02-20T16:53:32.456Z,-2.07
2023-02-20T16:56:54.209Z,-2.11
2023-02-20T17:00:19.788Z,-2.10
2023-02-20T17:03:41.754Z,-2.10
2023-02-20T17:07:03.629Z,-2.11
2023-02-20T17:10:26.600Z,-2.15
2023-02-20T17:13:48.893Z,-2.13
2023-02-20T17:17:12.578Z,-2.21
2023-02-20T17:20:34.320Z,-2.16
2023-02-20T17:23:56.484Z,-2.29
2023-02-20T17:27:19.221Z,-2.20
2023-02-20T17:30:41.480Z,-2.25
2023-02-20T17:34:05.645Z,-2.48
2023-02-20T17:37:30.551Z,-2.26
2023-02-20T17:40:52.861Z,-2.25
2023-02-20T17:44:18.979Z,-2.27
2023-02-20T17:47:41.286Z,-2.29
2023-02-20T17:51:04.930Z,-2.41
2023-02-20T17:54:27.725Z,-2.31
2023-02-20T17:57:49.986Z,-2.35
2023-02-20T18:01:12.351Z,-2.33
2023-02-20T18:04:34.464Z,-2.35
2023-02-20T18:07:57.796Z,-2.40
2023-02-20T18:11:20.793Z,-2.50
2023-02-20T18:14:44.269Z,-2.43
2023-02-20T18:18:06.734Z,-2.47
2023-02-20T18:21:31.145Z,-2.46
2023-02-20T18:24:54.741Z,-2.45
2023-02-20T18:28:17.194Z,-2.48
2023-02-20T18:31:39.563Z,-2.55
2023-02-20T18:35:01.484Z,-2.52
2023-02-20T18:38:23.408Z,-2.44
2023-02-20T18:41:51.542Z,-2.43
2023-02-20T18:45:13.445Z,-2.45
2023-02-20T18:48:35.881Z,-2.45
2023-02-20T18:51:58.205Z,-2.46
2023-02-20T18:55:20.696Z,-2.47
2023-02-20T18:58:44.189Z,-2.47
2023-02-20T19:02:06.198Z,-2.55
2023-02-20T19:05:28.670Z,-2.48
2023-02-20T19:08:50.829Z,-2.67
2023-02-20T19:12:13.088Z,-2.49
2023-02-20T19:15:36.510Z,-2.50
2023-02-20T19:18:58.824Z,-2.57
2023-02-20T19:22:23.504Z,-2.56
2023-02-20T19:25:45.766Z,-2.60
2023-02-20T19:29:08.086Z,-2.69
2023-02-20T19:32:32.131Z,-2.63
2023-02-20T19:35:54.623Z,-2.66
2023-02-20T19:39:16.970Z,-2.76
2023-02-20T19:42:40.561Z,-2.70
2023-02-20T19:46:02.531Z,-2.67
2023-02-20T19:49:26.163Z,-2.71
2023-02-20T19:52:49.892Z,-2.68
2023-02-20T19:56:12.786Z,-2.68
2023-02-20T19:59:34.971Z,-2.72
2023-02-20T20:02:58.401Z,-2.72
2023-02-20T20:06:27.491Z,-2.72
2023-02-20T20:09:49.757Z,-2.76
2023-02-20T20:13:11.694Z,-2.79
2023-02-20T20:16:35.457Z,-2.77
2023-02-20T20:19:59.921Z,-2.81
2023-02-20T20:23:24.462Z,-2.73
2023-02-20T20:26:46.761Z,-2.84
2023-02-20T20:30:22.495Z,-2.91
2023-02-20T20:33:44.495Z,-2.82
2023-02-20T20:37:06.325Z,-2.89
2023-02-20T20:40:30.556Z,-2.82
2023-02-20T20:43:52.360Z,-2.84
2023-02-20T20:47:14.394Z,-2.89
2023-02-20T20:50:36.776Z,-3.10
2023-02-20T20:53:59.222Z,-2.95
2023-02-20T20:57:25.724Z,-2.92
2023-02-20T21:00:47.884Z,-2.94
2023-02-20T21:04:10.437Z,-2.94
2023-02-20T21:07:33.847Z,-2.95
2023-02-20T21:10:58.096Z,-3.01
2023-02-20T21:14:21.598Z,-3.05
2023-02-20T21:17:44.147Z,-3.03
2023-02-20T21:21:07.355Z,-3.04
2023-02-20T21:24:29.363Z,-3.04
2023-02-20T21:27:52.113Z,-3.09
2023-02-20T21:31:16.745Z,-3.09
2023-02-20T21:34:38.900Z,-3.12
2023-02-20T21:38:01.215Z,-3.18
2023-02-20T21:41:42.185Z,-3.15
2023-02-20T21:45:05.457Z,-3.18
2023-02-20T21:48:28.763Z,-3.19
2023-02-20T21:51:51.010Z,-3.24
2023-02-20T21:55:15.585Z,-3.29
2023-02-20T21:58:55.239Z,-3.29
2023-02-20T22:02:17.589Z,-3.38
2023-02-20T22:05:40.018Z,-3.40
2023-02-20T22:09:19.731Z,-3.37
2023-02-20T22:12:59.247Z,-3.41
2023-02-20T22:16:39.112Z,-3.51
2023-02-20T22:20:18.997Z,-3.66
2023-02-20T22:23:59.842Z,-3.54
2023-02-20T22:27:39.667Z,-3.55
2023-02-20T22:31:20.033Z,-3.59
2023-02-20T22:35:10.876Z,-3.57
2023-02-20T22:38:51.035Z,-3.63
2023-02-20T22:42:35.106Z,-3.62
2023-02-20T22:46:15.090Z,-3.69
2023-02-20T22:49:54.748Z,-3.72
2023-02-20T22:53:34.514Z,-3.77
2023-02-20T22:57:15.885Z,-3.77
2023-02-20T23:00:57.200Z,-3.83
2023-02-20T23:04:39.786Z,-3.88
2023-02-20T23:08:20.770Z,-3.92
2023-02-20T23:12:02.298Z,-3.94
2023-02-20T23:15:42.797Z,-3.96
2023-02-20T23:19:25.689Z,-3.97
2023-02-20T23:23:08.794Z,-3.99
2023-02-20T23:26:50.316Z,-3.99
2023-02-20T23:30:32.215Z,-4.00
2023-02-20T23:34:13.790Z,-4.02
2023-02-20T23:37:55.891Z,-4.05
2023-02-20T23:41:37.489Z,-4.04
2023-02-20T23:45:17.799Z,-4.06
2023-02-20T23:48:58.732Z,-4.07
2023-02-20T23:52:39.921Z,-4.10
2023-02-20T23:56:23.973Z,-4.12
